createdAt,value
2018-05-21T00:02:12.325Z,37.50
2018-05-21T00:04:39.419Z,36.47
2018-05-21T00:07:05.511Z,34.70
2018-05-21T00:09:31.531Z,30.37
2018-05-21T00:11:57.541Z,35.17
2018-05-21T00:14:23.571Z,30.90
2018-05-21T00:16:49.678Z,34.97
2018-05-21T00:19:15.784Z,34.17
2018-05-21T00:21:41.845Z,34.03
2018-05-21T00:24:07.885Z,31.23
2018-05-21T00:26:33.912Z,34.20
2018-05-21T00:29:00.085Z,36.07
2018-05-21T00:31:26.113Z,32.40
2018-05-21T00:33:52.943Z,25.57
2018-05-21T00:36:18.998Z,29.73
2018-05-21T00:38:45.018Z,25.73
2018-05-21T00:41:11.051Z,27.53
2018-05-21T00:43:37.146Z,22.27
2018-05-21T00:46:03.172Z,26.27
2018-05-21T00:48:29.161Z,25.70
2018-05-21T00:50:55.224Z,23.83
2018-05-21T00:53:21.241Z,23.50
2018-05-21T00:55:47.234Z,23.17
2018-05-21T00:58:13.321Z,22.80
2018-05-21T01:00:39.357Z,22.77
2018-05-21T01:03:05.462Z,17.37
2018-05-21T01:05:31.504Z,22.30
2018-05-21T01:07:57.558Z,19.87
2018-05-21T01:10:23.600Z,16.63
2018-05-21T01:12:49.710Z,19.60
2018-05-21T01:15:15.709Z,16.27
2018-05-21T01:17:41.714Z,17.87
2018-05-21T01:20:07.821Z,14.37
2018-05-21T01:22:33.828Z,13.07
2018-05-21T01:24:59.879Z,12.27
2018-05-21T01:27:25.894Z,15.47
2018-05-21T01:29:51.951Z,11.77
2018-05-21T01:32:18.081Z,13.60
2018-05-21T01:34:44.172Z,11.13
2018-05-21T01:37:10.237Z,12.97
2018-05-21T01:39:37.074Z,11.90
2018-05-21T01:42:03.097Z,12.20
2018-05-21T01:44:29.149Z,10.30
2018-05-21T01:46:55.174Z,12.40
2018-05-21T01:49:21.269Z,12.00
2018-05-21T01:51:47.290Z,11.37
2018-05-21T01:54:13.312Z,9.37
2018-05-21T01:56:39.427Z,10.80
2018-05-21T01:59:05.487Z,11.27
2018-05-21T02:01:31.648Z,9.47
2018-05-21T02:03:57.665Z,9.93
2018-05-21T02:06:23.691Z,10.10
2018-05-21T02:08:49.785Z,12.43
2018-05-21T02:11:15.819Z,11.63
2018-05-21T02:13:41.878Z,9.13
2018-05-21T02:16:07.897Z,11.47
2018-05-21T02:18:33.909Z,9.77
2018-05-21T02:21:00.005Z,10.37
2018-05-21T02:23:26.046Z,9.77
2018-05-21T02:25:52.125Z,8.73
2018-05-21T02:28:18.154Z,8.70
2018-05-21T02:30:44.250Z,10.53
2018-05-21T02:33:10.330Z,10.57
2018-05-21T02:35:36.352Z,11.03
2018-05-21T02:38:02.444Z,8.23
2018-05-21T02:40:28.631Z,10.27
2018-05-21T02:42:54.648Z,8.60
2018-05-21T02:45:20.657Z,9.63
2018-05-21T02:47:46.689Z,9.67
2018-05-21T02:50:12.863Z,8.30
2018-05-21T02:52:38.974Z,9.83
2018-05-21T02:55:04.990Z,9.70
2018-05-21T02:57:31.033Z,8.50
2018-05-21T02:59:57.107Z,10.20
2018-05-21T03:02:23.151Z,10.33
2018-05-21T03:04:49.406Z,8.07
2018-05-21T03:07:15.405Z,9.37
2018-05-21T03:09:41.435Z,7.73
2018-05-21T03:12:07.494Z,10.13
2018-05-21T03:14:33.549Z,8.03
2018-05-21T03:16:59.673Z,9.10
2018-05-21T03:19:25.796Z,8.90
2018-05-21T03:21:51.827Z,8.57
2018-05-21T03:24:17.861Z,7.50
2018-05-21T03:26:43.929Z,9.80
2018-05-21T03:29:09.993Z,7.50
2018-05-21T03:31:36.043Z,9.27
2018-05-21T03:34:02.144Z,7.90
2018-05-21T03:36:28.214Z,9.13
2018-05-21T03:38:54.393Z,7.50
2018-05-21T03:41:20.478Z,7.47
2018-05-21T03:43:46.497Z,8.97
2018-05-21T03:46:12.708Z,6.90
2018-05-21T03:48:38.780Z,8.73
2018-05-21T03:51:04.832Z,7.33
2018-05-21T03:53:30.910Z,6.57
2018-05-21T03:55:56.966Z,6.43
2018-05-21T03:58:35.194Z,7.90
2018-05-21T04:01:13.487Z,6.57
2018-05-21T04:03:51.813Z,6.63
2018-05-21T04:06:17.935Z,7.77
2018-05-21T04:08:44.106Z,6.27
2018-05-21T04:11:10.166Z,7.23
2018-05-21T04:13:36.201Z,6.40
2018-05-21T04:16:02.252Z,8.13
2018-05-21T04:18:28.342Z,6.37
2018-05-21T04:20:54.397Z,6.27
2018-05-21T04:23:20.448Z,7.10
2018-05-21T04:25:46.595Z,5.63
2018-05-21T04:28:12.799Z,5.83
2018-05-21T04:30:38.828Z,6.50
2018-05-21T04:33:04.925Z,5.67
2018-05-21T04:35:30.982Z,5.90
2018-05-21T04:37:57.019Z,6.07
2018-05-21T04:40:23.073Z,5.53
2018-05-21T04:42:49.101Z,7.07
2018-05-21T04:45:15.156Z,5.23
2018-05-21T04:47:41.351Z,5.80
2018-05-21T04:50:07.414Z,5.30
2018-05-21T04:52:33.457Z,6.23
2018-05-21T04:54:59.493Z,5.23
2018-05-21T04:57:25.562Z,5.43
2018-05-21T04:59:51.699Z,5.07
2018-05-21T05:02:17.763Z,5.13
2018-05-21T05:04:43.754Z,5.00
2018-05-21T05:07:09.822Z,5.53
2018-05-21T05:09:35.846Z,5.10
2018-05-21T05:12:02.451Z,5.30
2018-05-21T05:14:28.528Z,5.17
2018-05-21T05:16:54.668Z,5.17
2018-05-21T05:19:20.704Z,6.17
2018-05-21T05:21:46.776Z,4.77
2018-05-21T05:24:12.836Z,5.10
2018-05-21T05:26:39.307Z,4.70
2018-05-21T05:29:05.348Z,6.20
2018-05-21T05:31:31.790Z,5.40
2018-05-21T05:33:57.809Z,6.37
2018-05-21T05:36:23.882Z,4.87
2018-05-21T05:38:49.965Z,6.10
2018-05-21T05:41:15.981Z,5.13
2018-05-21T05:43:42.009Z,5.50
2018-05-21T05:46:08.058Z,4.90
2018-05-21T05:48:34.085Z,5.13
2018-05-21T05:51:00.101Z,5.43
2018-05-21T05:53:26.237Z,4.87
2018-05-21T05:55:52.294Z,5.33
2018-05-21T05:58:18.303Z,5.20
2018-05-21T06:00:44.342Z,5.10
2018-05-21T06:03:10.470Z,4.90
2018-05-21T06:05:36.586Z,5.00
2018-05-21T06:08:03.532Z,5.27
2018-05-21T06:10:29.542Z,5.03
2018-05-21T06:12:55.633Z,5.00
2018-05-21T06:15:21.664Z,4.50
2018-05-21T06:17:47.717Z,4.70
2018-05-21T06:20:13.753Z,4.90
2018-05-21T06:22:39.809Z,5.00
2018-05-21T06:25:05.944Z,4.93
2018-05-21T06:27:31.971Z,4.80
2018-05-21T06:29:58.024Z,4.93
2018-05-21T06:32:24.037Z,5.00
2018-05-21T06:34:50.134Z,4.93
2018-05-21T06:37:16.154Z,4.37
2018-05-21T06:39:42.183Z,5.23
2018-05-21T06:42:08.271Z,4.10
2018-05-21T06:44:34.306Z,4.60
2018-05-21T06:47:00.359Z,4.27
2018-05-21T06:49:26.421Z,4.03
2018-05-21T06:51:59.725Z,4.67
2018-05-21T06:54:25.772Z,4.50
2018-05-21T06:56:51.822Z,4.10
2018-05-21T06:59:17.872Z,4.37
2018-05-21T07:01:43.943Z,4.47
2018-05-21T07:04:09.964Z,4.30
2018-05-21T07:06:36.016Z,4.17
2018-05-21T07:09:02.160Z,3.80
2018-05-21T07:11:28.177Z,4.20
2018-05-21T07:13:54.189Z,4.60
2018-05-21T07:16:20.590Z,4.17
2018-05-21T07:18:46.642Z,4.60
2018-05-21T07:21:12.698Z,4.07
2018-05-21T07:23:38.724Z,4.03
2018-05-21T07:26:04.795Z,3.90
2018-05-21T07:28:31.417Z,4.30
2018-05-21T07:30:57.415Z,4.23
2018-05-21T07:33:23.491Z,4.13
2018-05-21T07:35:49.566Z,4.33
2018-05-21T07:38:15.587Z,4.63
2018-05-21T07:40:41.627Z,4.50
2018-05-21T07:43:07.613Z,4.40
2018-05-21T07:45:33.649Z,4.00
2018-05-21T07:47:59.759Z,3.83
2018-05-21T07:50:25.783Z,4.37
2018-05-21T07:52:51.802Z,4.07
2018-05-21T07:55:17.846Z,3.83
2018-05-21T07:57:43.903Z,4.00
2018-05-21T08:00:10.015Z,4.37
2018-05-21T08:02:36.056Z,3.87
2018-05-21T08:05:02.147Z,4.00
2018-05-21T08:07:28.207Z,3.80
2018-05-21T08:09:54.259Z,4.20
2018-05-21T08:12:20.492Z,4.23
2018-05-21T08:14:46.779Z,4.33
2018-05-21T08:17:12.977Z,4.50
2018-05-21T08:19:39.037Z,5.20
2018-05-21T08:22:05.055Z,4.50
2018-05-21T08:24:31.095Z,4.43
2018-05-21T08:26:57.125Z,4.40
2018-05-21T08:29:23.183Z,4.13
2018-05-21T08:31:49.249Z,4.17
2018-05-21T08:34:15.307Z,4.73
2018-05-21T08:36:41.343Z,4.03
2018-05-21T08:39:07.445Z,4.73
2018-05-21T08:41:33.521Z,4.57
2018-05-21T08:43:59.533Z,4.47
2018-05-21T08:46:25.571Z,4.53
2018-05-21T08:48:51.669Z,4.63
2018-05-21T08:51:17.703Z,4.50
2018-05-21T08:53:43.728Z,4.63
2018-05-21T08:56:09.749Z,4.57
2018-05-21T08:58:35.867Z,4.70
2018-05-21T09:01:01.919Z,4.50
2018-05-21T09:03:27.974Z,4.20
2018-05-21T09:05:54.083Z,4.40
2018-05-21T09:08:20.124Z,4.00
2018-05-21T09:10:46.227Z,4.13
2018-05-21T09:13:12.582Z,3.87
2018-05-21T09:15:38.693Z,4.30
2018-05-21T09:18:04.745Z,4.57
2018-05-21T09:20:30.780Z,4.27
2018-05-21T09:22:57.492Z,4.53
2018-05-21T09:25:23.569Z,4.60
2018-05-21T09:27:49.581Z,4.37
2018-05-21T09:30:15.648Z,4.13
2018-05-21T09:32:41.668Z,3.90
2018-05-21T09:35:07.690Z,4.57
2018-05-21T09:37:33.780Z,3.80
2018-05-21T09:39:59.911Z,4.70
2018-05-21T09:42:26.079Z,4.07
2018-05-21T09:44:52.189Z,4.07
2018-05-21T09:47:18.271Z,4.10
2018-05-21T09:49:44.345Z,4.63
2018-05-21T09:52:10.387Z,4.53
2018-05-21T09:54:36.565Z,4.10
2018-05-21T09:57:02.782Z,3.57
2018-05-21T09:59:28.844Z,4.30
2018-05-21T10:01:54.877Z,4.10
2018-05-21T10:04:21.470Z,4.10
2018-05-21T10:06:47.549Z,3.77
2018-05-21T10:09:13.609Z,3.87
2018-05-21T10:11:39.614Z,4.40
2018-05-21T10:16:38.550Z,4.57
2018-05-21T10:19:04.709Z,4.13
2018-05-21T10:21:30.895Z,3.83
2018-05-21T10:23:56.948Z,3.80
2018-05-21T10:26:23.005Z,4.20
2018-05-21T10:28:49.033Z,3.83
2018-05-21T10:31:15.178Z,3.40
2018-05-21T10:33:41.206Z,3.50
2018-05-21T10:36:07.209Z,3.60
2018-05-21T10:38:33.246Z,3.27
2018-05-21T10:40:59.303Z,4.00
2018-05-21T10:43:25.379Z,3.70
2018-05-21T10:45:51.390Z,3.83
2018-05-21T10:48:17.381Z,3.47
2018-05-21T10:50:43.438Z,4.00
2018-05-21T10:53:09.471Z,3.73
2018-05-21T10:55:35.516Z,3.77
2018-05-21T10:58:01.562Z,3.67
2018-05-21T11:00:27.596Z,3.63
2018-05-21T11:02:53.623Z,4.00
2018-05-21T11:05:19.758Z,3.80
2018-05-21T11:07:46.473Z,4.30
2018-05-21T11:10:12.666Z,3.80
2018-05-21T11:12:38.715Z,6.47
2018-05-21T11:15:04.777Z,3.73
2018-05-21T11:17:30.884Z,4.03
2018-05-21T11:19:56.963Z,4.10
2018-05-21T11:22:23.018Z,4.10
2018-05-21T11:24:49.102Z,6.50
2018-05-21T11:27:15.232Z,4.00
2018-05-21T11:29:41.414Z,3.80
2018-05-21T11:32:07.486Z,3.80
2018-05-21T11:34:33.529Z,3.70
2018-05-21T11:36:59.697Z,4.20
2018-05-21T11:39:25.736Z,3.97
2018-05-21T11:41:51.838Z,3.87
2018-05-21T11:44:17.862Z,4.20
2018-05-21T11:46:44.845Z,3.73
2018-05-21T11:49:10.917Z,4.13
2018-05-21T11:51:37.215Z,3.80
2018-05-21T11:54:03.350Z,4.40
2018-05-21T11:56:29.418Z,4.07
2018-05-21T11:58:55.492Z,3.80
2018-05-21T12:01:21.545Z,3.83
2018-05-21T12:03:47.615Z,3.63
2018-05-21T12:06:13.682Z,3.53
2018-05-21T12:08:39.775Z,4.00
2018-05-21T12:11:05.916Z,3.60
2018-05-21T12:13:32.600Z,3.63
2018-05-21T12:15:58.680Z,3.43
2018-05-21T12:18:24.709Z,3.90
2018-05-21T12:20:50.816Z,3.43
2018-05-21T12:23:17.054Z,3.70
2018-05-21T12:25:43.637Z,3.43
2018-05-21T12:28:09.701Z,3.70
2018-05-21T12:30:35.723Z,3.87
2018-05-21T12:33:01.777Z,3.67
2018-05-21T12:35:27.905Z,4.00
2018-05-21T12:37:54.023Z,3.97
2018-05-21T12:40:20.070Z,3.60
2018-05-21T12:42:46.205Z,3.63
2018-05-21T12:45:12.394Z,3.60
2018-05-21T12:47:38.588Z,3.87
2018-05-21T12:50:04.671Z,3.50
2018-05-21T12:52:30.951Z,3.47
2018-05-21T12:54:57.006Z,3.57
2018-05-21T12:57:23.193Z,4.07
2018-05-21T12:59:49.280Z,3.37
2018-05-21T13:02:15.377Z,3.60
2018-05-21T13:04:41.477Z,3.77
2018-05-21T13:07:07.573Z,3.67
2018-05-21T13:09:33.641Z,3.80
2018-05-21T13:11:59.817Z,3.80
2018-05-21T13:14:25.879Z,3.90
2018-05-21T13:16:51.975Z,3.70
2018-05-21T13:19:18.038Z,3.83
2018-05-21T13:21:44.124Z,3.87
2018-05-21T13:24:10.398Z,3.73
2018-05-21T13:26:36.450Z,3.63
2018-05-21T13:29:02.511Z,3.87
2018-05-21T13:31:28.544Z,3.80
2018-05-21T13:33:54.762Z,4.30
2018-05-21T13:36:20.888Z,3.60
2018-05-21T13:38:46.999Z,3.47
2018-05-21T13:41:13.081Z,3.80
2018-05-21T13:43:39.163Z,3.70
2018-05-21T13:46:05.301Z,3.60
2018-05-21T13:48:31.314Z,3.83
2018-05-21T13:50:57.376Z,3.97
2018-05-21T13:53:23.420Z,4.00
2018-05-21T13:55:49.528Z,4.00
2018-05-21T13:58:15.604Z,3.77
2018-05-21T14:00:41.738Z,4.13
2018-05-21T14:03:07.816Z,4.10
2018-05-21T14:05:33.942Z,3.87
2018-05-21T14:08:00.018Z,3.50
2018-05-21T14:10:26.032Z,3.60
2018-05-21T14:12:52.114Z,3.93
2018-05-21T14:15:18.155Z,4.23
2018-05-21T14:17:44.244Z,3.93
2018-05-21T14:20:10.357Z,4.20
2018-05-21T14:22:36.513Z,4.10
2018-05-21T14:25:02.771Z,4.30
2018-05-21T14:27:28.837Z,4.30
2018-05-21T14:29:54.917Z,4.37
2018-05-21T14:32:20.986Z,4.33
2018-05-21T14:34:47.255Z,4.07
2018-05-21T14:37:13.338Z,4.10
2018-05-21T14:39:39.429Z,4.80
2018-05-21T14:42:05.523Z,4.60
2018-05-21T14:44:31.621Z,4.50
2018-05-21T14:46:57.649Z,4.20
2018-05-21T14:49:23.721Z,4.00
2018-05-21T14:51:49.769Z,4.20
2018-05-21T14:54:15.850Z,4.50
2018-05-21T14:56:41.902Z,4.53
2018-05-21T14:59:07.911Z,4.67
2018-05-21T15:01:34.025Z,4.60
2018-05-21T15:04:00.090Z,4.20
2018-05-21T15:06:26.147Z,4.17
2018-05-21T15:08:52.209Z,4.20
2018-05-21T15:11:18.300Z,4.33
2018-05-21T15:13:45.245Z,4.83
2018-05-21T15:16:11.357Z,4.90
2018-05-21T15:18:37.358Z,4.50
2018-05-21T15:21:03.418Z,4.47
2018-05-21T15:23:29.441Z,5.83
2018-05-21T15:25:55.555Z,5.67
2018-05-21T15:28:21.631Z,4.83
2018-05-21T15:30:47.667Z,4.73
2018-05-21T15:33:13.739Z,4.80
2018-05-21T15:35:39.784Z,4.43
2018-05-21T15:38:05.849Z,5.20
2018-05-21T15:40:31.902Z,4.67
2018-05-21T15:42:58.121Z,5.10
2018-05-21T15:45:24.143Z,4.73
2018-05-21T15:47:50.212Z,5.00
2018-05-21T15:50:16.266Z,5.20
2018-05-21T15:52:42.442Z,5.20
2018-05-21T15:55:08.663Z,4.93
2018-05-21T15:57:34.760Z,4.97
2018-05-21T16:00:00.704Z,4.80
2018-05-21T16:02:26.994Z,4.90
2018-05-21T16:04:53.217Z,4.80
2018-05-21T16:07:19.309Z,5.20
2018-05-21T16:09:45.325Z,4.83
2018-05-21T16:12:11.380Z,5.37
2018-05-21T16:14:37.458Z,5.30
2018-05-21T16:17:03.484Z,5.30
2018-05-21T16:19:29.529Z,5.33
2018-05-21T16:21:55.570Z,4.90
2018-05-21T16:24:21.743Z,5.60
2018-05-21T16:26:47.677Z,5.60
2018-05-21T16:29:13.770Z,5.30
2018-05-21T16:31:39.850Z,5.07
2018-05-21T16:34:05.848Z,5.50
2018-05-21T16:36:31.899Z,6.00
2018-05-21T16:38:58.009Z,6.03
2018-05-21T16:41:24.049Z,5.83
2018-05-21T16:43:50.149Z,5.50
2018-05-21T16:46:16.273Z,6.07
2018-05-21T16:48:42.372Z,7.40
2018-05-21T16:51:08.582Z,5.80
2018-05-21T16:53:34.593Z,5.53
2018-05-21T16:56:00.604Z,5.20
2018-05-21T16:58:26.795Z,5.27
2018-05-21T17:00:52.855Z,5.27
2018-05-21T17:03:18.884Z,4.63
2018-05-21T17:05:44.880Z,5.20
2018-05-21T17:08:11.031Z,4.90
2018-05-21T17:10:37.081Z,4.80
2018-05-21T17:13:03.155Z,4.83
2018-05-21T17:15:29.166Z,4.67
2018-05-21T17:17:55.318Z,4.60
2018-05-21T17:20:21.460Z,5.70
2018-05-21T17:22:47.431Z,4.90
2018-05-21T17:25:13.477Z,4.83
2018-05-21T17:27:39.526Z,4.97
2018-05-21T17:30:05.597Z,4.57
2018-05-21T17:32:31.695Z,4.73
2018-05-21T17:34:57.884Z,4.43
2018-05-21T17:37:23.926Z,5.07
2018-05-21T17:39:49.971Z,5.17
2018-05-21T17:42:16.165Z,4.57
2018-05-21T17:44:42.312Z,5.00
2018-05-21T17:47:08.559Z,5.07
2018-05-21T17:49:34.736Z,4.90
2018-05-21T17:52:00.896Z,4.60
2018-05-21T17:54:26.904Z,4.90
2018-05-21T17:56:53.074Z,4.53
2018-05-21T17:59:19.219Z,4.70
2018-05-21T18:01:45.316Z,4.87
2018-05-21T18:04:11.647Z,4.83
2018-05-21T18:06:37.657Z,5.00
2018-05-21T18:09:03.785Z,4.50
2018-05-21T18:11:29.833Z,4.87
2018-05-21T18:13:55.932Z,4.87
2018-05-21T18:16:22.028Z,4.70
2018-05-21T18:18:48.050Z,4.80
2018-05-21T18:21:14.096Z,4.80
2018-05-21T18:23:40.153Z,5.30
2018-05-21T18:26:06.250Z,4.50
2018-05-21T18:28:32.302Z,4.77
2018-05-21T18:30:58.359Z,4.70
2018-05-21T18:33:24.504Z,5.30
2018-05-21T18:35:50.739Z,4.70
2018-05-21T18:38:16.833Z,4.60
2018-05-21T18:40:42.902Z,4.77
2018-05-21T18:43:08.972Z,4.50
2018-05-21T18:45:35.072Z,4.47
2018-05-21T18:48:01.205Z,5.03
2018-05-21T18:50:27.221Z,5.03
2018-05-21T18:52:53.247Z,4.47
2018-05-21T18:55:19.310Z,4.67
2018-05-21T18:57:45.346Z,4.70
2018-05-21T19:00:11.510Z,4.73
2018-05-21T19:02:37.459Z,4.43
2018-05-21T19:05:03.518Z,4.77
2018-05-21T19:07:29.536Z,4.60
2018-05-21T19:09:55.565Z,4.77
2018-05-21T19:12:21.649Z,4.90
2018-05-21T19:14:47.701Z,4.53
2018-05-21T19:17:13.750Z,4.73
2018-05-21T19:19:39.774Z,4.50
2018-05-21T19:22:05.798Z,4.40
2018-05-21T19:24:31.812Z,4.17
2018-05-21T19:26:57.855Z,4.60
2018-05-21T19:29:23.919Z,4.57
2018-05-21T19:31:50.027Z,4.17
2018-05-21T19:34:16.103Z,4.27
2018-05-21T19:36:42.175Z,4.47
2018-05-21T19:39:08.281Z,4.30
2018-05-21T19:41:34.327Z,4.17
2018-05-21T19:44:00.376Z,4.60
2018-05-21T19:46:26.465Z,4.30
2018-05-21T19:48:52.736Z,4.50
2018-05-21T19:51:18.840Z,4.67
2018-05-21T19:53:44.957Z,4.47
2018-05-21T19:56:11.035Z,4.40
2018-05-21T19:58:37.131Z,4.77
2018-05-21T20:01:03.548Z,4.43
2018-05-21T20:03:29.591Z,4.23
2018-05-21T20:05:55.704Z,4.70
2018-05-21T20:08:21.753Z,4.53
2018-05-21T20:10:47.835Z,3.93
2018-05-21T20:13:13.953Z,4.20
2018-05-21T20:15:40.046Z,4.57
2018-05-21T20:18:06.097Z,3.90
2018-05-21T20:20:38.270Z,4.30
2018-05-21T20:23:04.299Z,5.10
2018-05-21T20:25:30.318Z,5.13
2018-05-21T20:27:56.382Z,5.30
2018-05-21T20:30:22.443Z,5.00
2018-05-21T20:32:48.548Z,4.47
2018-05-21T20:35:14.602Z,4.53
2018-05-21T20:37:40.716Z,4.47
2018-05-21T20:40:06.917Z,4.50
2018-05-21T20:42:33.614Z,4.20
2018-05-21T20:44:59.630Z,4.27
2018-05-21T20:47:25.670Z,4.90
2018-05-21T20:49:51.712Z,4.10
2018-05-21T20:52:17.760Z,4.33
2018-05-21T20:54:43.810Z,4.30
2018-05-21T20:57:09.851Z,4.37
2018-05-21T20:59:35.874Z,4.50
2018-05-21T21:02:01.898Z,4.30
2018-05-21T21:04:27.904Z,4.53
2018-05-21T21:06:53.969Z,4.77
2018-05-21T21:09:20.275Z,4.80
2018-05-21T21:11:46.315Z,5.40
2018-05-21T21:14:12.586Z,4.13
2018-05-21T21:16:38.615Z,4.57
2018-05-21T21:19:05.198Z,4.10
2018-05-21T21:21:31.243Z,4.73
2018-05-21T21:23:58.222Z,4.53
2018-05-21T21:26:24.430Z,4.57
2018-05-21T21:28:50.453Z,4.10
2018-05-21T21:31:16.502Z,4.40
2018-05-21T21:33:42.691Z,4.00
2018-05-21T21:36:09.320Z,3.87
2018-05-21T21:38:35.327Z,4.50
2018-05-21T21:41:01.347Z,4.50
2018-05-21T21:43:27.412Z,4.77
2018-05-21T21:45:53.438Z,4.50
2018-05-21T21:48:19.449Z,4.10
2018-05-21T21:50:45.466Z,4.33
2018-05-21T21:53:11.516Z,4.23
2018-05-21T21:55:37.546Z,4.27
2018-05-21T21:58:03.676Z,4.07
2018-05-21T22:00:29.745Z,4.10
2018-05-21T22:02:56.005Z,4.73
2018-05-21T22:05:22.123Z,4.60
2018-05-21T22:07:48.270Z,4.70
2018-05-21T22:10:14.295Z,4.60
2018-05-21T22:12:40.326Z,4.60
2018-05-21T22:15:06.494Z,4.50
2018-05-21T22:17:32.670Z,5.00
2018-05-21T22:19:58.721Z,4.10
2018-05-21T22:22:24.880Z,5.07
2018-05-21T22:24:50.926Z,4.13
2018-05-21T22:27:17.079Z,4.17
2018-05-21T22:29:43.241Z,4.67
2018-05-21T22:32:09.293Z,5.07
2018-05-21T22:34:35.362Z,4.73
2018-05-21T22:37:01.427Z,4.43
2018-05-21T22:39:27.865Z,4.13
2018-05-21T22:41:53.892Z,4.70
2018-05-21T22:44:20.119Z,3.90
2018-05-21T22:46:46.287Z,4.80
2018-05-21T22:49:12.342Z,4.40
2018-05-21T22:51:38.365Z,4.43
2018-05-21T22:54:04.401Z,4.80
2018-05-21T22:56:31.411Z,4.30
2018-05-21T22:58:57.809Z,4.43
2018-05-21T23:01:23.886Z,4.43
2018-05-21T23:03:49.926Z,5.13
2018-05-21T23:06:15.978Z,4.37
2018-05-21T23:08:42.001Z,5.10
2018-05-21T23:11:08.039Z,4.57
2018-05-21T23:13:34.693Z,4.47
2018-05-21T23:16:00.834Z,4.53
2018-05-21T23:18:26.888Z,5.10
2018-05-21T23:20:52.932Z,4.50
2018-05-21T23:23:19.021Z,4.87
2018-05-21T23:25:45.843Z,4.50
2018-05-21T23:28:11.859Z,4.33
2018-05-21T23:30:37.882Z,4.67
2018-05-21T23:33:03.964Z,4.93
2018-05-21T23:35:29.976Z,4.47
2018-05-21T23:37:56.024Z,4.37
2018-05-21T23:40:22.077Z,4.40
2018-05-21T23:42:48.135Z,4.73
2018-05-21T23:45:14.444Z,4.90
2018-05-21T23:47:40.486Z,5.20
2018-05-21T23:50:06.493Z,4.40
2018-05-21T23:52:32.527Z,4.63
2018-05-21T23:54:58.840Z,4.20
2018-05-21T23:57:24.929Z,4.50
2018-05-21T23:59:51.761Z,4.60
